createdAt,value
2018-04-27T00:01:07.776Z,3.03
2018-04-27T00:03:34.157Z,3.77
2018-04-27T00:06:00.509Z,3.97
2018-04-27T00:08:27.709Z,3.30
2018-04-27T00:10:53.976Z,3.43
2018-04-27T00:13:22.244Z,3.87
2018-04-27T00:15:48.812Z,3.50
2018-04-27T00:18:15.064Z,3.37
2018-04-27T00:20:41.333Z,3.10
2018-04-27T00:23:07.566Z,3.50
2018-04-27T00:25:36.659Z,4.30
2018-04-27T00:28:03.651Z,3.27
2018-04-27T00:30:29.966Z,5.20
2018-04-27T00:32:56.775Z,3.50
2018-04-27T00:35:24.677Z,3.50
2018-04-27T00:37:50.927Z,3.37
2018-04-27T00:40:17.258Z,3.83
2018-04-27T00:42:43.621Z,3.50
2018-04-27T00:45:10.059Z,3.43
2018-04-27T00:47:36.705Z,3.87
2018-04-27T00:50:05.821Z,4.07
2018-04-27T00:52:44.408Z,4.77
2018-04-27T00:55:10.903Z,3.67
2018-04-27T00:57:37.065Z,3.87
2018-04-27T01:00:03.258Z,3.60
2018-04-27T01:02:29.690Z,4.30
2018-04-27T01:04:56.585Z,4.40
2018-04-27T01:07:25.093Z,3.30
2018-04-27T01:09:52.010Z,4.00
2018-04-27T01:12:19.000Z,3.50
2018-04-27T01:14:45.898Z,4.07
2018-04-27T01:17:12.171Z,5.13
2018-04-27T01:19:38.407Z,3.33
2018-04-27T01:22:04.677Z,4.03
2018-04-27T01:24:30.837Z,4.40
2018-04-27T01:26:58.626Z,3.60
2018-04-27T01:29:24.819Z,3.90
2018-04-27T01:31:51.911Z,4.20
2018-04-27T01:34:18.286Z,4.10
2018-04-27T01:36:45.169Z,3.73
2018-04-27T01:39:12.203Z,3.90
2018-04-27T01:41:39.223Z,4.20
2018-04-27T01:44:05.533Z,4.30
2018-04-27T01:46:31.897Z,4.30
2018-04-27T01:48:58.093Z,3.93
2018-04-27T01:51:24.885Z,4.30
2018-04-27T01:53:51.174Z,4.13
2018-04-27T01:56:17.338Z,4.30
2018-04-27T01:58:43.558Z,4.07
2018-04-27T02:01:09.843Z,4.03
2018-04-27T02:03:38.990Z,4.30
2018-04-27T02:06:05.200Z,4.10
2018-04-27T02:08:31.427Z,4.97
2018-04-27T02:10:57.635Z,5.30
2018-04-27T02:13:24.737Z,4.20
2018-04-27T02:15:51.850Z,4.40
2018-04-27T02:18:18.065Z,4.27
2018-04-27T02:20:45.111Z,5.30
2018-04-27T02:23:11.322Z,5.17
2018-04-27T02:25:38.070Z,4.17
2018-04-27T02:28:04.925Z,5.73
2018-04-27T02:30:32.172Z,4.00
2018-04-27T02:32:58.438Z,5.00
2018-04-27T02:35:25.141Z,4.87
2018-04-27T02:37:51.376Z,4.60
2018-04-27T02:40:18.562Z,4.70
2018-04-27T02:42:44.745Z,4.60
2018-04-27T02:45:10.957Z,4.53
2018-04-27T02:47:37.518Z,5.33
2018-04-27T02:50:03.637Z,4.57
2018-04-27T02:52:30.605Z,4.43
2018-04-27T02:54:56.946Z,6.57
2018-04-27T02:57:23.165Z,4.80
2018-04-27T02:59:50.289Z,5.40
2018-04-27T03:02:17.339Z,5.47
2018-04-27T03:04:43.570Z,5.30
2018-04-27T03:07:09.792Z,5.30
2018-04-27T03:09:36.333Z,5.20
2018-04-27T03:12:02.559Z,4.80
2018-04-27T03:14:28.991Z,4.90
2018-04-27T03:16:58.293Z,4.97
2018-04-27T03:19:24.520Z,5.17
2018-04-27T03:21:52.102Z,4.70
2018-04-27T03:24:18.265Z,5.70
2018-04-27T03:26:45.012Z,5.53
2018-04-27T03:29:11.537Z,5.17
2018-04-27T03:31:37.704Z,8.27
2018-04-27T03:34:03.775Z,5.90
2018-04-27T03:36:31.535Z,7.57
2018-04-27T03:38:57.992Z,5.57
2018-04-27T03:41:25.959Z,6.20
2018-04-27T03:43:53.097Z,5.43
2018-04-27T03:46:20.349Z,6.83
2018-04-27T03:48:47.515Z,6.50
2018-04-27T03:51:13.633Z,6.50
2018-04-27T03:53:39.890Z,8.17
2018-04-27T03:56:06.716Z,6.47
2018-04-27T03:58:33.147Z,5.53
2018-04-27T04:01:11.672Z,7.73
2018-04-27T04:03:51.094Z,5.60
2018-04-27T04:06:17.343Z,5.53
2018-04-27T04:08:44.205Z,6.60
2018-04-27T04:11:10.306Z,6.23
2018-04-27T04:13:37.454Z,6.60
2018-04-27T04:16:03.663Z,6.20
2018-04-27T04:18:29.894Z,6.27
2018-04-27T04:20:56.585Z,6.17
2018-04-27T04:23:24.116Z,6.30
2018-04-27T04:25:50.446Z,7.07
2018-04-27T04:28:18.225Z,6.50
2018-04-27T04:30:47.191Z,8.73
2018-04-27T04:33:16.303Z,6.63
2018-04-27T04:35:43.513Z,7.47
2018-04-27T04:38:10.596Z,7.73
2018-04-27T04:40:38.983Z,6.83
2018-04-27T04:43:05.408Z,7.03
2018-04-27T04:45:32.507Z,6.93
2018-04-27T04:48:00.011Z,6.70
2018-04-27T04:50:26.455Z,7.03
2018-04-27T04:52:53.782Z,9.17
2018-04-27T04:55:20.960Z,7.33
2018-04-27T04:57:47.889Z,8.10
2018-04-27T05:00:14.928Z,8.30
2018-04-27T05:02:41.843Z,7.80
2018-04-27T05:05:08.547Z,7.70
2018-04-27T05:07:43.519Z,9.97
2018-04-27T05:10:11.974Z,7.20
2018-04-27T05:12:41.546Z,7.73
2018-04-27T05:15:08.108Z,7.97
2018-04-27T05:17:34.903Z,9.03
2018-04-27T05:20:01.387Z,8.10
2018-04-27T05:22:32.719Z,7.27
2018-04-27T05:24:59.285Z,10.70
2018-04-27T05:27:26.896Z,7.60
2018-04-27T05:29:58.252Z,6.97
2018-04-27T05:32:28.533Z,6.43
2018-04-27T05:34:56.782Z,9.27
2018-04-27T05:37:24.624Z,8.90
2018-04-27T05:39:54.890Z,8.53
2018-04-27T05:42:22.397Z,8.30
2018-04-27T05:44:53.048Z,8.68
2018-04-27T05:47:19.758Z,12.30
2018-04-27T05:49:52.649Z,9.00
2018-04-27T05:52:19.021Z,8.40
2018-04-27T05:54:46.271Z,8.77
2018-04-27T05:57:14.314Z,8.07
2018-04-27T05:59:40.686Z,9.43
2018-04-27T06:02:07.184Z,9.30
2018-04-27T06:04:34.064Z,9.30
2018-04-27T06:07:01.379Z,8.73
2018-04-27T06:09:27.490Z,7.80
2018-04-27T06:11:53.871Z,9.43
2018-04-27T06:14:19.973Z,9.27
2018-04-27T06:16:46.123Z,10.50
2018-04-27T06:19:12.273Z,9.33
2018-04-27T06:21:39.865Z,9.73
2018-04-27T06:24:06.185Z,9.70
2018-04-27T06:26:34.595Z,9.83
2018-04-27T06:29:01.772Z,8.63
2018-04-27T06:31:27.911Z,9.23
2018-04-27T06:33:54.504Z,9.83
2018-04-27T06:36:20.718Z,9.23
2018-04-27T06:38:48.792Z,9.33
2018-04-27T06:41:15.323Z,9.50
2018-04-27T06:43:41.579Z,9.73
2018-04-27T06:46:09.128Z,10.67
2018-04-27T06:48:35.336Z,10.43
2018-04-27T06:51:03.023Z,9.60
2018-04-27T06:53:29.432Z,10.03
2018-04-27T06:55:55.662Z,10.93
2018-04-27T06:58:22.716Z,10.30
2018-04-27T07:00:50.490Z,9.97
2018-04-27T07:03:18.581Z,9.70
2018-04-27T07:05:45.122Z,11.20
2018-04-27T07:08:13.201Z,9.47
2018-04-27T07:10:41.099Z,9.93
2018-04-27T07:13:08.368Z,10.93
2018-04-27T07:15:35.126Z,8.93
2018-04-27T07:20:33.500Z,8.50
2018-04-27T07:23:01.076Z,7.77
2018-04-27T07:25:27.136Z,8.77
2018-04-27T07:27:57.686Z,9.10
2018-04-27T07:30:23.893Z,7.80
2018-04-27T07:32:50.210Z,7.93
2018-04-27T07:35:16.744Z,8.07
2018-04-27T07:37:44.003Z,8.50
2018-04-27T07:40:11.120Z,7.90
2018-04-27T07:42:38.220Z,9.40
2018-04-27T07:45:07.184Z,8.57
2018-04-27T07:47:33.814Z,10.03
2018-04-27T07:50:00.886Z,11.10
2018-04-27T07:52:29.245Z,14.67
2018-04-27T07:54:55.580Z,45.90
2018-04-27T07:57:21.883Z,8.70
2018-04-27T07:59:49.881Z,11.23
2018-04-27T08:02:16.074Z,8.07
2018-04-27T08:04:42.249Z,9.80
2018-04-27T08:07:08.708Z,11.30
2018-04-27T08:09:36.121Z,12.07
2018-04-27T08:12:02.769Z,10.83
2018-04-27T08:14:29.038Z,9.00
2018-04-27T08:19:51.136Z,9.80
2018-04-27T08:22:17.521Z,12.90
2018-04-27T08:24:44.557Z,8.23
2018-04-27T08:27:11.326Z,11.57
2018-04-27T08:29:38.253Z,9.00
2018-04-27T08:32:04.593Z,10.77
2018-04-27T08:34:31.006Z,8.57
2018-04-27T08:36:58.029Z,8.30
2018-04-27T08:39:24.155Z,17.37
2018-04-27T08:41:52.118Z,10.87
2018-04-27T08:44:19.331Z,9.87
2018-04-27T08:46:46.102Z,9.87
2018-04-27T08:49:12.486Z,7.27
2018-04-27T08:51:39.815Z,11.87
2018-04-27T08:54:07.648Z,24.80
2018-04-27T08:56:35.826Z,8.80
2018-04-27T08:59:03.293Z,18.50
2018-04-27T09:01:29.924Z,7.43
2018-04-27T09:03:57.553Z,6.70
2018-04-27T09:06:23.582Z,9.80
2018-04-27T09:08:49.783Z,10.33
2018-04-27T09:11:16.929Z,8.03
2018-04-27T09:13:43.758Z,7.10
2018-04-27T09:16:11.173Z,4.03
2018-04-27T09:18:37.319Z,4.97
2018-04-27T09:21:03.521Z,4.77
2018-04-27T09:23:30.015Z,4.17
2018-04-27T09:25:56.290Z,4.70
2018-04-27T09:28:23.025Z,4.30
2018-04-27T09:30:49.289Z,4.27
2018-04-27T09:33:16.765Z,3.63
2018-04-27T09:35:42.985Z,3.97
2018-04-27T09:38:10.349Z,4.60
2018-04-27T09:40:37.648Z,6.03
2018-04-27T09:43:06.442Z,6.00
2018-04-27T09:45:32.688Z,4.40
2018-04-27T09:47:59.074Z,8.03
2018-04-27T09:50:25.285Z,4.90
2018-04-27T09:52:51.430Z,4.27
2018-04-27T09:55:17.753Z,3.43
2018-04-27T09:57:45.772Z,3.80
2018-04-27T10:00:13.638Z,4.50
2018-04-27T10:02:40.790Z,4.03
2018-04-27T10:05:07.791Z,3.63
2018-04-27T10:07:34.516Z,3.50
2018-04-27T10:10:01.648Z,3.97
2018-04-27T10:12:27.992Z,4.43
2018-04-27T10:14:56.236Z,3.30
2018-04-27T10:17:22.466Z,3.57
2018-04-27T10:19:48.760Z,2.87
2018-04-27T10:22:15.693Z,3.50
2018-04-27T10:24:41.850Z,5.83
2018-04-27T10:27:08.939Z,4.17
2018-04-27T10:29:35.320Z,3.40
2018-04-27T10:32:02.257Z,3.67
2018-04-27T10:34:29.172Z,3.40
2018-04-27T10:36:55.267Z,3.30
2018-04-27T10:39:22.758Z,4.20
2018-04-27T10:41:50.083Z,8.13
2018-04-27T10:44:16.216Z,3.03
2018-04-27T10:46:43.226Z,4.87
2018-04-27T10:49:10.562Z,3.77
2018-04-27T10:51:37.621Z,4.47
2018-04-27T10:54:05.117Z,4.00
2018-04-27T10:56:32.022Z,3.03
2018-04-27T10:58:58.254Z,4.20
2018-04-27T11:01:25.194Z,5.07
2018-04-27T11:03:52.199Z,4.13
2018-04-27T11:06:19.031Z,7.20
2018-04-27T11:08:45.527Z,4.47
2018-04-27T11:11:11.853Z,3.60
2018-04-27T11:13:38.272Z,6.77
2018-04-27T11:16:04.794Z,4.93
2018-04-27T11:18:31.903Z,4.57
2018-04-27T11:20:58.386Z,3.83
2018-04-27T11:23:25.060Z,4.63
2018-04-27T11:25:52.259Z,4.03
2018-04-27T11:28:18.502Z,6.37
2018-04-27T11:30:45.578Z,4.50
2018-04-27T11:33:14.256Z,3.60
2018-04-27T11:35:41.679Z,4.03
2018-04-27T11:38:07.909Z,4.10
2018-04-27T11:40:34.693Z,4.10
2018-04-27T11:43:01.849Z,3.70
2018-04-27T11:45:29.032Z,4.10
2018-04-27T11:47:55.252Z,3.80
2018-04-27T11:50:21.599Z,5.33
2018-04-27T11:52:47.773Z,3.80
2018-04-27T11:55:14.779Z,4.80
2018-04-27T11:57:41.837Z,4.87
2018-04-27T12:00:08.160Z,4.53
2018-04-27T12:02:34.473Z,3.70
2018-04-27T12:05:01.070Z,3.53
2018-04-27T12:07:27.146Z,3.33
2018-04-27T12:09:54.090Z,3.40
2018-04-27T12:12:21.137Z,3.73
2018-04-27T12:14:47.338Z,3.80
2018-04-27T12:17:14.318Z,3.80
2018-04-27T12:19:43.259Z,3.60
2018-04-27T12:22:11.215Z,3.40
2018-04-27T12:24:38.493Z,3.47
2018-04-27T12:27:04.657Z,3.80
2018-04-27T12:29:31.488Z,3.67
2018-04-27T12:31:58.686Z,3.60
2018-04-27T12:34:26.373Z,3.70
2018-04-27T12:36:53.300Z,3.87
2018-04-27T12:39:19.589Z,3.43
2018-04-27T12:41:47.280Z,4.30
2018-04-27T12:44:14.301Z,3.20
2018-04-27T12:46:40.535Z,3.27
2018-04-27T12:49:06.847Z,3.20
2018-04-27T12:51:33.690Z,4.07
2018-04-27T12:54:00.465Z,3.30
2018-04-27T12:56:26.727Z,4.90
2018-04-27T12:58:53.300Z,3.70
2018-04-27T13:01:20.465Z,3.80
2018-04-27T13:03:46.954Z,3.80
2018-04-27T13:06:13.976Z,3.43
2018-04-27T13:08:43.218Z,3.20
2018-04-27T13:11:09.569Z,2.80
2018-04-27T13:13:36.005Z,3.50
2018-04-27T13:16:02.144Z,3.80
2018-04-27T13:18:31.707Z,4.53
2018-04-27T13:20:58.023Z,3.23
2018-04-27T13:23:25.106Z,3.63
2018-04-27T13:25:54.483Z,3.67
2018-04-27T13:28:21.417Z,4.60
2018-04-27T13:30:48.385Z,3.40
2018-04-27T13:33:14.572Z,3.93
2018-04-27T13:35:40.857Z,3.30
2018-04-27T13:38:09.780Z,3.33
2018-04-27T13:40:37.975Z,3.10
2018-04-27T13:43:04.172Z,3.70
2018-04-27T13:45:31.732Z,2.80
2018-04-27T13:47:58.817Z,3.50
2018-04-27T13:50:24.993Z,3.13
2018-04-27T13:52:51.494Z,3.33
2018-04-27T13:55:17.716Z,3.30
2018-04-27T14:00:17.055Z,4.93
2018-04-27T14:02:45.657Z,4.63
2018-04-27T14:05:11.848Z,3.50
2018-04-27T14:07:39.058Z,3.97
2018-04-27T14:10:06.253Z,3.07
2018-04-27T14:12:33.980Z,3.50
2018-04-27T14:15:00.153Z,3.17
2018-04-27T14:17:28.805Z,3.47
2018-04-27T14:19:55.951Z,3.43
2018-04-27T14:22:27.259Z,3.60
2018-04-27T14:24:56.050Z,3.30
2018-04-27T14:27:25.549Z,3.40
2018-04-27T14:29:54.035Z,3.20
2018-04-27T14:32:20.430Z,2.67
2018-04-27T14:34:49.262Z,3.13
2018-04-27T14:37:19.876Z,3.27
2018-04-27T14:39:46.009Z,3.20
2018-04-27T14:42:12.172Z,3.37
2018-04-27T14:44:40.040Z,3.53
2018-04-27T14:47:06.084Z,3.77
2018-04-27T14:49:32.575Z,3.47
2018-04-27T14:51:59.597Z,3.53
2018-04-27T14:54:25.764Z,4.27
2018-04-27T14:56:52.006Z,3.80
2018-04-27T14:59:18.406Z,3.23
2018-04-27T15:01:44.834Z,5.33
2018-04-27T15:04:11.825Z,2.95
2018-04-27T15:06:38.893Z,3.07
2018-04-27T15:09:08.607Z,3.70
2018-04-27T15:11:34.938Z,3.40
2018-04-27T15:14:01.909Z,3.03
2018-04-27T15:16:32.453Z,2.70
2018-04-27T15:18:58.882Z,3.40
2018-04-27T15:21:25.887Z,3.50
2018-04-27T15:23:52.126Z,3.70
2018-04-27T15:26:20.041Z,3.80
2018-04-27T15:28:46.282Z,4.97
2018-04-27T15:31:14.512Z,3.40
2018-04-27T15:33:40.972Z,3.23
2018-04-27T15:36:07.255Z,2.80
2018-04-27T15:38:34.356Z,5.20
2018-04-27T15:41:00.612Z,3.40
2018-04-27T15:43:28.144Z,3.83
2018-04-27T15:45:54.373Z,3.07
2018-04-27T15:48:20.560Z,3.10
2018-04-27T15:50:46.982Z,3.73
2018-04-27T15:53:13.368Z,3.10
2018-04-27T15:55:40.332Z,2.97
2018-04-27T15:58:06.496Z,4.00
2018-04-27T16:00:34.431Z,3.00
2018-04-27T16:03:00.811Z,3.67
2018-04-27T16:05:26.906Z,4.50
2018-04-27T16:07:53.903Z,4.90
2018-04-27T16:10:20.267Z,4.67
2018-04-27T16:12:48.041Z,3.03
2018-04-27T16:15:15.213Z,4.73
2018-04-27T16:17:42.233Z,3.20
2018-04-27T16:20:08.314Z,3.10
2018-04-27T16:22:35.062Z,4.03
2018-04-27T16:25:01.683Z,3.60
2018-04-27T16:27:30.196Z,5.87
2018-04-27T16:29:58.345Z,3.27
2018-04-27T16:32:25.021Z,3.30
2018-04-27T16:34:51.870Z,4.23
2018-04-27T16:37:18.801Z,4.50
2018-04-27T16:39:45.086Z,4.50
2018-04-27T16:42:12.331Z,3.33
2018-04-27T16:44:39.440Z,3.00
2018-04-27T16:47:05.632Z,4.60
2018-04-27T16:49:32.707Z,3.53
2018-04-27T16:51:58.926Z,5.07
2018-04-27T16:54:26.194Z,4.37
2018-04-27T16:56:53.288Z,3.83
2018-04-27T16:59:21.315Z,3.83
2018-04-27T17:01:48.787Z,3.60
2018-04-27T17:04:14.875Z,4.80
2018-04-27T17:06:40.982Z,5.00
2018-04-27T17:09:07.181Z,4.90
2018-04-27T17:11:35.066Z,4.37
2018-04-27T17:14:03.183Z,3.47
2018-04-27T17:16:30.378Z,3.87
2018-04-27T17:18:56.468Z,3.30
2018-04-27T17:21:23.359Z,3.60
2018-04-27T17:23:50.618Z,3.10
2018-04-27T17:26:16.944Z,2.97
2018-04-27T17:28:43.995Z,3.00
2018-04-27T17:31:10.144Z,2.83
2018-04-27T17:33:37.355Z,3.10
2018-04-27T17:36:04.952Z,2.70
2018-04-27T17:38:31.669Z,2.70
2018-04-27T17:40:58.006Z,3.20
2018-04-27T17:43:24.171Z,4.33
2018-04-27T17:45:50.196Z,4.73
2018-04-27T17:48:16.326Z,5.97
2018-04-27T17:50:43.583Z,3.77
2018-04-27T17:53:09.617Z,4.20
2018-04-27T17:55:36.435Z,3.60
2018-04-27T17:58:03.749Z,3.97
2018-04-27T18:00:30.095Z,3.80
2018-04-27T18:02:56.969Z,5.50
2018-04-27T18:05:24.276Z,3.67
2018-04-27T18:07:51.367Z,3.03
2018-04-27T18:10:18.514Z,3.70
2018-04-27T18:12:46.379Z,3.90
2018-04-27T18:15:13.287Z,3.70
2018-04-27T18:17:39.884Z,4.77
2018-04-27T18:20:05.974Z,5.23
2018-04-27T18:22:33.154Z,9.40
2018-04-27T18:24:59.369Z,17.77
2018-04-27T18:27:25.474Z,8.20
2018-04-27T18:29:52.597Z,6.00
2018-04-27T18:32:20.280Z,4.20
2018-04-27T18:34:46.959Z,7.30
2018-04-27T18:37:13.073Z,4.53
2018-04-27T18:39:39.146Z,3.93
2018-04-27T18:42:06.887Z,4.50
2018-04-27T18:44:33.112Z,4.60
2018-04-27T18:46:59.301Z,5.53
2018-04-27T18:49:25.573Z,5.60
2018-04-27T18:51:51.986Z,5.47
2018-04-27T18:54:17.955Z,7.03
2018-04-27T18:56:44.088Z,6.63
2018-04-27T18:59:10.955Z,6.70
2018-04-27T19:01:38.642Z,7.83
2018-04-27T19:04:04.999Z,9.90
2018-04-27T19:06:32.166Z,12.50
2018-04-27T19:08:58.651Z,10.10
2018-04-27T19:11:28.780Z,8.00
2018-04-27T19:13:54.840Z,8.67
2018-04-27T19:16:21.082Z,8.53
2018-04-27T19:18:49.837Z,9.60
2018-04-27T19:21:18.011Z,11.40
2018-04-27T19:23:44.195Z,8.90
2018-04-27T19:26:12.168Z,9.50
2018-04-27T19:28:38.567Z,7.53
2018-04-27T19:31:04.711Z,12.83
2018-04-27T19:33:30.839Z,7.50
2018-04-27T19:36:07.236Z,7.60
2018-04-27T19:38:34.024Z,8.70
2018-04-27T19:41:01.690Z,8.83
2018-04-27T19:43:27.920Z,8.40
2018-04-27T19:45:54.159Z,7.90
2018-04-27T19:48:20.581Z,7.80
2018-04-27T19:50:46.743Z,9.43
2018-04-27T19:53:13.071Z,11.80
2018-04-27T19:55:40.286Z,13.30
2018-04-27T19:58:07.519Z,13.90
2018-04-27T20:00:35.569Z,11.50
2018-04-27T20:03:02.553Z,10.00
2018-04-27T20:05:28.613Z,7.57
2018-04-27T20:07:54.802Z,6.73
2018-04-27T20:10:27.236Z,6.53
2018-04-27T20:12:53.747Z,7.20
2018-04-27T20:15:32.266Z,7.40
2018-04-27T20:17:58.499Z,7.10
2018-04-27T20:20:24.954Z,7.00
2018-04-27T20:22:52.412Z,8.40
2018-04-27T20:25:20.194Z,9.07
2018-04-27T20:27:47.414Z,7.60
2018-04-27T20:30:13.609Z,8.90
2018-04-27T20:32:41.033Z,8.70
2018-04-27T20:35:09.047Z,7.80
2018-04-27T20:37:35.894Z,8.87
2018-04-27T20:40:02.077Z,9.27
2018-04-27T20:42:29.466Z,8.97
2018-04-27T20:44:55.646Z,9.67
2018-04-27T20:47:21.993Z,10.60
2018-04-27T20:49:48.097Z,9.47
2018-04-27T20:52:15.845Z,9.60
2018-04-27T20:54:42.204Z,10.03
2018-04-27T20:57:09.526Z,9.90
2018-04-27T20:59:37.403Z,9.90
2018-04-27T21:02:05.277Z,12.50
2018-04-27T21:04:31.443Z,12.90
2018-04-27T21:06:59.333Z,10.93
2018-04-27T21:09:26.223Z,11.43
2018-04-27T21:11:52.241Z,9.67
2018-04-27T21:14:18.385Z,8.97
2018-04-27T21:16:44.444Z,10.00
2018-04-27T21:19:11.236Z,10.60
2018-04-27T21:21:38.121Z,9.77
2018-04-27T21:24:04.352Z,11.03
2018-04-27T21:26:32.911Z,13.40
2018-04-27T21:28:59.029Z,14.10
2018-04-27T21:31:26.181Z,15.03
2018-04-27T21:33:52.397Z,14.30
2018-04-27T21:36:18.632Z,15.97
2018-04-27T21:42:02.575Z,14.60
2018-04-27T21:44:37.637Z,16.90
2018-04-27T21:47:25.797Z,13.37
2018-04-27T21:49:51.909Z,8.40
2018-04-27T21:52:26.225Z,8.33
2018-04-27T21:54:57.489Z,9.77
2018-04-27T21:57:32.406Z,7.60
2018-04-27T21:59:58.852Z,7.33
2018-04-27T22:06:00.143Z,7.50
2018-04-27T22:08:30.226Z,6.70
2018-04-27T22:11:03.832Z,7.10
2018-04-27T22:13:30.216Z,7.10
2018-04-27T22:15:57.314Z,6.00
2018-04-27T22:18:25.330Z,6.30
2018-04-27T22:20:55.337Z,6.93
2018-04-27T22:23:23.874Z,6.53
2018-04-27T22:25:54.931Z,6.60
2018-04-27T22:28:41.594Z,6.70
2018-04-27T22:31:08.193Z,6.17
2018-04-27T22:33:41.220Z,6.30
2018-04-27T22:36:19.284Z,6.27
2018-04-27T22:39:00.715Z,6.77
2018-04-27T22:41:28.065Z,7.57
2018-04-27T22:43:55.766Z,6.10
2018-04-27T22:46:21.860Z,6.73
2018-04-27T22:51:51.207Z,6.47
2018-04-27T22:57:25.860Z,6.60
2018-04-27T22:59:53.323Z,5.90
2018-04-27T23:02:21.284Z,6.10
2018-04-27T23:04:53.892Z,5.87
2018-04-27T23:07:23.058Z,5.87
2018-04-27T23:09:56.954Z,5.93
2018-04-27T23:12:25.168Z,6.00
2018-04-27T23:14:52.826Z,5.77
2018-04-27T23:17:20.076Z,6.37
2018-04-27T23:20:03.966Z,5.70
2018-04-27T23:25:42.009Z,6.50
2018-04-27T23:28:10.731Z,6.10
2018-04-27T23:30:42.994Z,6.00
2018-04-27T23:33:12.180Z,6.27
2018-04-27T23:35:40.110Z,5.50
2018-04-27T23:38:10.483Z,5.87
2018-04-27T23:40:38.211Z,6.17
2018-04-27T23:43:06.881Z,5.00
2018-04-27T23:45:33.932Z,5.30
2018-04-27T23:48:00.058Z,4.87
2018-04-27T23:50:28.466Z,5.10
2018-04-27T23:52:54.794Z,6.57
2018-04-27T23:55:23.086Z,5.40
2018-04-27T23:57:50.034Z,5.20
